sensor_id;sensor_type;location;lat;lon;timestamp;pressure;altitude;pressure_sealevel;temperature;humidity
44127;BME280;29786;50.798;7.302;2023-05-07T00:05:37;99220;;;14.38;100
44127;BME280;29786;50.798;7.302;2023-05-07T00:10:33;99200;;;14.21;100
44127;BME280;29786;50.798;7.302;2023-05-07T00:15:30;99210;;;14.35;100
44127;BME280;29786;50.798;7.302;2023-05-07T00:20:26;99210;;;14.25;100
44127;BME280;29786;50.798;7.302;2023-05-07T00:26:37;99210;;;14.42;100
44127;BME280;29786;50.798;7.302;2023-05-07T00:31:34;99220;;;14.35;100
44127;BME280;29786;50.798;7.302;2023-05-07T00:36:30;99220;;;14.46;100
44127;BME280;29786;50.798;7.302;2023-05-07T00:41:27;99220;;;14.44;100
44127;BME280;29786;50.798;7.302;2023-05-07T00:47:37;99210;;;14.61;100
44127;BME280;29786;50.798;7.302;2023-05-07T00:52:34;99200;;;14.62;100
44127;BME280;29786;50.798;7.302;2023-05-07T00:57:32;99200;;;14.63;100
44127;BME280;29786;50.798;7.302;2023-05-07T01:08:38;99200;;;14.54;100
44127;BME280;29786;50.798;7.302;2023-05-07T01:13:34;99200;;;14.54;100
44127;BME280;29786;50.798;7.302;2023-05-07T01:18:31;99190;;;14.49;100
44127;BME280;29786;50.798;7.302;2023-05-07T01:23:27;99190;;;14.37;100
44127;BME280;29786;50.798;7.302;2023-05-07T01:29:38;99190;;;14.28;100
44127;BME280;29786;50.798;7.302;2023-05-07T01:34:35;99180;;;14.2;100
44127;BME280;29786;50.798;7.302;2023-05-07T01:39:31;99180;;;14.22;100
44127;BME280;29786;50.798;7.302;2023-05-07T01:44:28;99180;;;14.14;100
44127;BME280;29786;50.798;7.302;2023-05-07T01:50:38;99180;;;14.22;100
44127;BME280;29786;50.798;7.302;2023-05-07T01:55:35;99180;;;14.31;100
44127;BME280;29786;50.798;7.302;2023-05-07T02:00:31;99180;;;14.16;100
44127;BME280;29786;50.798;7.302;2023-05-07T02:05:28;99190;;;14.16;100
44127;BME280;29786;50.798;7.302;2023-05-07T02:11:38;99190;;;14.34;100
44127;BME280;29786;50.798;7.302;2023-05-07T02:16:35;99180;;;14.55;100
44127;BME280;29786;50.798;7.302;2023-05-07T02:21:31;99180;;;14.48;100
44127;BME280;29786;50.798;7.302;2023-05-07T02:32:39;99180;;;14.28;100
44127;BME280;29786;50.798;7.302;2023-05-07T02:37:35;99180;;;14.21;100
44127;BME280;29786;50.798;7.302;2023-05-07T02:42:32;99170;;;14.12;100
44127;BME280;29786;50.798;7.302;2023-05-07T02:47:28;99180;;;14.21;100
44127;BME280;29786;50.798;7.302;2023-05-07T02:53:39;99180;;;14.03;100
44127;BME280;29786;50.798;7.302;2023-05-07T02:58:36;99180;;;13.85;100
44127;BME280;29786;50.798;7.302;2023-05-07T03:03:32;99180;;;14.06;100
44127;BME280;29786;50.798;7.302;2023-05-07T03:08:29;99180;;;13.94;100
44127;BME280;29786;50.798;7.302;2023-05-07T03:14:39;99170;;;13.76;100
44127;BME280;29786;50.798;7.302;2023-05-07T03:19:36;99160;;;13.65;100
44127;BME280;29786;50.798;7.302;2023-05-07T03:24:32;99170;;;13.59;100
44127;BME280;29786;50.798;7.302;2023-05-07T03:29:29;99170;;;13.52;100
44127;BME280;29786;50.798;7.302;2023-05-07T03:35:40;99170;;;13.52;100
44127;BME280;29786;50.798;7.302;2023-05-07T03:40:36;99160;;;13.65;100
44127;BME280;29786;50.798;7.302;2023-05-07T03:45:33;99170;;;13.94;100
44127;BME280;29786;50.798;7.302;2023-05-07T03:50:29;99170;;;13.85;100
44127;BME280;29786;50.798;7.302;2023-05-07T03:56:40;99170;;;13.94;100
44127;BME280;29786;50.798;7.302;2023-05-07T04:01:36;99170;;;13.86;100
44127;BME280;29786;50.798;7.302;2023-05-07T04:06:33;99180;;;14.02;100
44127;BME280;29786;50.798;7.302;2023-05-07T04:11:29;99180;;;14.13;100
44127;BME280;29786;50.798;7.302;2023-05-07T04:17:40;99190;;;14.19;100
44127;BME280;29786;50.798;7.302;2023-05-07T04:22:37;99190;;;14.03;100
44127;BME280;29786;50.798;7.302;2023-05-07T04:27:33;99170;;;13.83;100
44127;BME280;29786;50.798;7.302;2023-05-07T04:32:30;99190;;;14.08;100
44127;BME280;29786;50.798;7.302;2023-05-07T04:37:26;99200;;;14.14;100
44127;BME280;29786;50.798;7.302;2023-05-07T04:43:37;99190;;;14.13;100
44127;BME280;29786;50.798;7.302;2023-05-07T04:48:33;99170;;;14.02;100
44127;BME280;29786;50.798;7.302;2023-05-07T04:53:30;99200;;;14.24;100
44127;BME280;29786;50.798;7.302;2023-05-07T04:58:26;99200;;;14.35;100
44127;BME280;29786;50.798;7.302;2023-05-07T05:04:37;99190;;;14.57;100
44127;BME280;29786;50.798;7.302;2023-05-07T05:09:34;99190;;;14.68;100
44127;BME280;29786;50.798;7.302;2023-05-07T05:14:30;99190;;;14.91;100
44127;BME280;29786;50.798;7.302;2023-05-07T05:19:27;99200;;;15.11;100
44127;BME280;29786;50.798;7.302;2023-05-07T05:25:37;99200;;;15.32;100
44127;BME280;29786;50.798;7.302;2023-05-07T05:30:34;99200;;;15.22;100
44127;BME280;29786;50.798;7.302;2023-05-07T05:35:30;99200;;;15.38;100
44127;BME280;29786;50.798;7.302;2023-05-07T05:46:38;99200;;;15.58;100
44127;BME280;29786;50.798;7.302;2023-05-07T05:51:34;99200;;;15.66;100
44127;BME280;29786;50.798;7.302;2023-05-07T05:56:31;99200;;;15.62;100
44127;BME280;29786;50.798;7.302;2023-05-07T06:01:27;99210;;;15.76;100
44127;BME280;29786;50.798;7.302;2023-05-07T06:07:38;99210;;;15.78;100
44127;BME280;29786;50.798;7.302;2023-05-07T06:12:35;99210;;;16.14;100
44127;BME280;29786;50.798;7.302;2023-05-07T06:17:31;99210;;;16.25;100
44127;BME280;29786;50.798;7.302;2023-05-07T06:22:28;99220;;;16.39;100
44127;BME280;29786;50.798;7.302;2023-05-07T06:28:38;99220;;;16.65;100
44127;BME280;29786;50.798;7.302;2023-05-07T06:33:35;99220;;;16.83;100
44127;BME280;29786;50.798;7.302;2023-05-07T06:38:31;99220;;;17.01;100
44127;BME280;29786;50.798;7.302;2023-05-07T06:43:28;99230;;;17.45;100
44127;BME280;29786;50.798;7.302;2023-05-07T06:49:39;99230;;;17.46;100
44127;BME280;29786;50.798;7.302;2023-05-07T06:54:35;99240;;;17.7;100
44127;BME280;29786;50.798;7.302;2023-05-07T06:59:32;99250;;;17.69;100
44127;BME280;29786;50.798;7.302;2023-05-07T07:10:39;99240;;;18.1;100
44127;BME280;29786;50.798;7.302;2023-05-07T07:15:35;99240;;;18.25;100
44127;BME280;29786;50.798;7.302;2023-05-07T07:20:32;99240;;;18.51;100
44127;BME280;29786;50.798;7.302;2023-05-07T07:25:28;99250;;;18.5;100
44127;BME280;29786;50.798;7.302;2023-05-07T07:31:39;99250;;;18.94;99.75
44127;BME280;29786;50.798;7.302;2023-05-07T07:36:36;99250;;;19.02;96.83
44127;BME280;29786;50.798;7.302;2023-05-07T07:41:32;99250;;;18.71;97.75
44127;BME280;29786;50.798;7.302;2023-05-07T07:46:29;99250;;;19.31;93.87
44127;BME280;29786;50.798;7.302;2023-05-07T07:52:39;99250;;;19.68;87.97
44127;BME280;29786;50.798;7.302;2023-05-07T07:57:36;99260;;;19.36;93.05
44127;BME280;29786;50.798;7.302;2023-05-07T08:02:32;99260;;;19.2;97.07
44127;BME280;29786;50.798;7.302;2023-05-07T08:07:29;99270;;;19.16;95.23
44127;BME280;29786;50.798;7.302;2023-05-07T08:13:40;99270;;;19.56;94.8
44127;BME280;29786;50.798;7.302;2023-05-07T08:18:36;99270;;;19.75;91.22
44127;BME280;29786;50.798;7.302;2023-05-07T08:23:33;99270;;;20.03;86.29
44127;BME280;29786;50.798;7.302;2023-05-07T08:28:29;99280;;;20.08;84.2
44127;BME280;29786;50.798;7.302;2023-05-07T08:34:40;99270;;;19.95;83.94
44127;BME280;29786;50.798;7.302;2023-05-07T08:39:36;99280;;;20.37;81.91
44127;BME280;29786;50.798;7.302;2023-05-07T08:44:33;99260;;;20.34;85.16
44127;BME280;29786;50.798;7.302;2023-05-07T08:49:29;99270;;;20.9;81.39
44127;BME280;29786;50.798;7.302;2023-05-07T08:55:40;99270;;;21.47;76.33
44127;BME280;29786;50.798;7.302;2023-05-07T09:00:37;99270;;;21.39;75.48
44127;BME280;29786;50.798;7.302;2023-05-07T09:05:33;99250;;;21.96;72.45
44127;BME280;29786;50.798;7.302;2023-05-07T09:10:30;99270;;;22.51;70.66
44127;BME280;29786;50.798;7.302;2023-05-07T09:16:40;99260;;;22.45;68.91
44127;BME280;29786;50.798;7.302;2023-05-07T09:21:37;99270;;;23.36;65.5
44127;BME280;29786;50.798;7.302;2023-05-07T09:26:33;99240;;;23.76;60.69
44127;BME280;29786;50.798;7.302;2023-05-07T09:31:30;99260;;;23.02;65.11
44127;BME280;29786;50.798;7.302;2023-05-07T09:37:41;99260;;;23.4;65.53
44127;BME280;29786;50.798;7.302;2023-05-07T09:42:37;99250;;;23.8;63.93
44127;BME280;29786;50.798;7.302;2023-05-07T09:47:34;99260;;;24.1;61.27
44127;BME280;29786;50.798;7.302;2023-05-07T09:52:30;99250;;;23.71;59.49
44127;BME280;29786;50.798;7.302;2023-05-07T09:57:27;99260;;;23.47;63.71
44127;BME280;29786;50.798;7.302;2023-05-07T10:03:39;99260;;;24.17;59.75
44127;BME280;29786;50.798;7.302;2023-05-07T10:08:34;99250;;;24.24;56.81
44127;BME280;29786;50.798;7.302;2023-05-07T10:13:31;99250;;;23.74;57.85
44127;BME280;29786;50.798;7.302;2023-05-07T10:18:27;99250;;;24.31;58.11
44127;BME280;29786;50.798;7.302;2023-05-07T10:24:38;99240;;;24.87;56.8
44127;BME280;29786;50.798;7.302;2023-05-07T10:30:10;99240;;;25.33;54.8
44127;BME280;29786;50.798;7.302;2023-05-07T10:34:35;99240;;;25.85;53.05
44127;BME280;29786;50.798;7.302;2023-05-07T10:39:27;99240;;;25.56;50.98
44127;BME280;29786;50.798;7.302;2023-05-07T10:45:38;99240;;;25.2;51.66
44127;BME280;29786;50.798;7.302;2023-05-07T10:50:35;99240;;;26.09;51.61
44127;BME280;29786;50.798;7.302;2023-05-07T10:55:31;99240;;;25.66;50.89
44127;BME280;29786;50.798;7.302;2023-05-07T11:06:38;99230;;;25.94;49.94
44127;BME280;29786;50.798;7.302;2023-05-07T11:11:51;99230;;;26.8;47.85
44127;BME280;29786;50.798;7.302;2023-05-07T11:16:32;99220;;;26.2;47.84
44127;BME280;29786;50.798;7.302;2023-05-07T11:21:32;99210;;;27.4;46.25
44127;BME280;29786;50.798;7.302;2023-05-07T11:27:38;99210;;;27.08;45.33
44127;BME280;29786;50.798;7.302;2023-05-07T11:32:35;99210;;;26.24;46.88
44127;BME280;29786;50.798;7.302;2023-05-07T11:37:32;99210;;;26.7;44.23
44127;BME280;29786;50.798;7.302;2023-05-07T11:48:39;99210;;;26.69;43.07
44127;BME280;29786;50.798;7.302;2023-05-07T11:53:37;99200;;;26.57;45.82
44127;BME280;29786;50.798;7.302;2023-05-07T11:58:32;99210;;;25.53;45.21
44127;BME280;29786;50.798;7.302;2023-05-07T12:09:39;99210;;;24.55;50.37
44127;BME280;29786;50.798;7.302;2023-05-07T12:14:39;99210;;;23.96;50.22
44127;BME280;29786;50.798;7.302;2023-05-07T12:19:32;99210;;;23.79;52.22
44127;BME280;29786;50.798;7.302;2023-05-07T12:24:30;99220;;;23.21;54.6
44127;BME280;29786;50.798;7.302;2023-05-07T12:30:39;99220;;;23.03;54.72
44127;BME280;29786;50.798;7.302;2023-05-07T12:35:37;99230;;;22.87;56.14
44127;BME280;29786;50.798;7.302;2023-05-07T12:40:36;99230;;;22.97;55.19
44127;BME280;29786;50.798;7.302;2023-05-07T12:45:29;99230;;;22.2;56.24
44127;BME280;29786;50.798;7.302;2023-05-07T12:51:40;99230;;;21.8;62.14
44127;BME280;29786;50.798;7.302;2023-05-07T12:55:22;99240;;;21.7;64.96
44127;BME280;29786;50.798;7.302;2023-05-07T12:56:36;99240;;;21.63;66.79
44127;BME280;29786;50.798;7.302;2023-05-07T13:01:33;99240;;;21.59;69.78
44127;BME280;29786;50.798;7.302;2023-05-07T13:06:29;99240;;;21.38;71.49
44127;BME280;29786;50.798;7.302;2023-05-07T13:12:40;99250;;;21.99;72.27
44127;BME280;29786;50.798;7.302;2023-05-07T13:17:36;99250;;;21.68;77.01
44127;BME280;29786;50.798;7.302;2023-05-07T13:22:33;99240;;;21.7;86.97
44127;BME280;29786;50.798;7.302;2023-05-07T13:27:29;99230;;;21.51;92.82
44127;BME280;29786;50.798;7.302;2023-05-07T13:33:40;99220;;;21.47;94.08
44127;BME280;29786;50.798;7.302;2023-05-07T13:38:37;99220;;;21.75;83.06
44127;BME280;29786;50.798;7.302;2023-05-07T13:43:33;99210;;;22.11;83.13
44127;BME280;29786;50.798;7.302;2023-05-07T13:48:30;99220;;;23.69;72.08
44127;BME280;29786;50.798;7.302;2023-05-07T13:54:40;99210;;;25;60.7
44127;BME280;29786;50.798;7.302;2023-05-07T13:59:37;99220;;;26.36;57.78
44127;BME280;29786;50.798;7.302;2023-05-07T14:04:33;99210;;;27.63;50.94
44127;BME280;29786;50.798;7.302;2023-05-07T14:09:30;99220;;;27.78;47.68
44127;BME280;29786;50.798;7.302;2023-05-07T14:15:41;99210;;;29.26;44.7
44127;BME280;29786;50.798;7.302;2023-05-07T14:20:37;99210;;;28.79;44.97
44127;BME280;29786;50.798;7.302;2023-05-07T14:25:34;99200;;;26.35;49.81
44127;BME280;29786;50.798;7.302;2023-05-07T14:30:30;99210;;;25.16;53.87
44127;BME280;29786;50.798;7.302;2023-05-07T14:35:27;99220;;;23.62;59.67
44127;BME280;29786;50.798;7.302;2023-05-07T14:41:37;99230;;;22.81;59.05
44127;BME280;29786;50.798;7.302;2023-05-07T14:51:30;99230;;;21.64;67.54
44127;BME280;29786;50.798;7.302;2023-05-07T14:56:27;99240;;;21.69;68.12
44127;BME280;29786;50.798;7.302;2023-05-07T15:02:38;99250;;;21.14;74.28
44127;BME280;29786;50.798;7.302;2023-05-07T15:07:34;99250;;;20.67;81.56
44127;BME280;29786;50.798;7.302;2023-05-07T15:12:31;99250;;;21.02;81.33
44127;BME280;29786;50.798;7.302;2023-05-07T15:17:27;99260;;;20.91;81.1
44127;BME280;29786;50.798;7.302;2023-05-07T15:23:38;99260;;;20.63;81.29
44127;BME280;29786;50.798;7.302;2023-05-07T15:28:35;99260;;;20.4;83.9
44127;BME280;29786;50.798;7.302;2023-05-07T15:33:31;99290;;;19.94;90.15
44127;BME280;29786;50.798;7.302;2023-05-07T15:38:28;99300;;;19.7;91.94
44127;BME280;29786;50.798;7.302;2023-05-07T15:44:38;99320;;;19.33;91.96
44127;BME280;29786;50.798;7.302;2023-05-07T15:49:35;99320;;;19.09;96.54
44127;BME280;29786;50.798;7.302;2023-05-07T15:54:31;99330;;;18.85;100
44127;BME280;29786;50.798;7.302;2023-05-07T15:59:28;99350;;;18.64;100
44127;BME280;29786;50.798;7.302;2023-05-07T16:05:39;99360;;;18.42;100
44127;BME280;29786;50.798;7.302;2023-05-07T16:10:36;99370;;;18.21;100
44127;BME280;29786;50.798;7.302;2023-05-07T16:15:32;99360;;;18.24;100
44127;BME280;29786;50.798;7.302;2023-05-07T16:20:28;99340;;;17.62;100
44127;BME280;29786;50.798;7.302;2023-05-07T16:26:39;99350;;;16.87;100
44127;BME280;29786;50.798;7.302;2023-05-07T16:31:35;99350;;;16.69;100
44127;BME280;29786;50.798;7.302;2023-05-07T16:36:32;99350;;;16.6;100
44127;BME280;29786;50.798;7.302;2023-05-07T16:41:29;99350;;;16.6;100
44127;BME280;29786;50.798;7.302;2023-05-07T16:47:39;99350;;;16.61;100
44127;BME280;29786;50.798;7.302;2023-05-07T16:52:36;99350;;;16.62;100
44127;BME280;29786;50.798;7.302;2023-05-07T16:57:32;99350;;;16.68;100
44127;BME280;29786;50.798;7.302;2023-05-07T17:02:29;99350;;;17;100
44127;BME280;29786;50.798;7.302;2023-05-07T17:08:40;99350;;;16.7;100
44127;BME280;29786;50.798;7.302;2023-05-07T17:13:36;99350;;;16.65;100
44127;BME280;29786;50.798;7.302;2023-05-07T17:18:32;99350;;;16.79;100
44127;BME280;29786;50.798;7.302;2023-05-07T17:23:29;99360;;;16.66;100
44127;BME280;29786;50.798;7.302;2023-05-07T17:29:40;99360;;;16.58;100
44127;BME280;29786;50.798;7.302;2023-05-07T17:34:36;99370;;;16.61;100
44127;BME280;29786;50.798;7.302;2023-05-07T17:38:19;99380;;;16.69;100
44127;BME280;29786;50.798;7.302;2023-05-07T17:39:33;99380;;;16.79;100
44127;BME280;29786;50.798;7.302;2023-05-07T17:44:29;99390;;;16.95;100
44127;BME280;29786;50.798;7.302;2023-05-07T17:50:40;99400;;;16.95;100
44127;BME280;29786;50.798;7.302;2023-05-07T17:55:40;99410;;;16.78;100
44127;BME280;29786;50.798;7.302;2023-05-07T18:00:33;99420;;;16.54;100
44127;BME280;29786;50.798;7.302;2023-05-07T18:05:30;99430;;;16.56;100
44127;BME280;29786;50.798;7.302;2023-05-07T18:11:40;99430;;;16.34;100
44127;BME280;29786;50.798;7.302;2023-05-07T18:16:37;99430;;;15.94;100
44127;BME280;29786;50.798;7.302;2023-05-07T18:21:33;99420;;;15.6;100
44127;BME280;29786;50.798;7.302;2023-05-07T18:26:30;99440;;;15.69;100
44127;BME280;29786;50.798;7.302;2023-05-07T18:31:26;99440;;;15.66;100
44127;BME280;29786;50.798;7.302;2023-05-07T18:37:37;99450;;;15.42;100
44127;BME280;29786;50.798;7.302;2023-05-07T18:42:34;99440;;;15.14;100
44127;BME280;29786;50.798;7.302;2023-05-07T18:47:30;99460;;;15.33;100
44127;BME280;29786;50.798;7.302;2023-05-07T18:52:27;99470;;;15.53;100
44127;BME280;29786;50.798;7.302;2023-05-07T18:58:37;99480;;;15.93;100
44127;BME280;29786;50.798;7.302;2023-05-07T19:03:34;99470;;;15.95;100
44127;BME280;29786;50.798;7.302;2023-05-07T19:08:30;99500;;;16.33;100
44127;BME280;29786;50.798;7.302;2023-05-07T19:13:27;99500;;;16.23;100
44127;BME280;29786;50.798;7.302;2023-05-07T19:19:37;99510;;;16.34;100
44127;BME280;29786;50.798;7.302;2023-05-07T19:29:30;99530;;;16.62;100
44127;BME280;29786;50.798;7.302;2023-05-07T19:34:27;99540;;;16.52;100
44127;BME280;29786;50.798;7.302;2023-05-07T19:40:38;99540;;;16.54;100
44127;BME280;29786;50.798;7.302;2023-05-07T19:45:34;99550;;;16.35;100
44127;BME280;29786;50.798;7.302;2023-05-07T19:50:31;99550;;;16.04;100
44127;BME280;29786;50.798;7.302;2023-05-07T19:55:27;99550;;;16.01;100
44127;BME280;29786;50.798;7.302;2023-05-07T20:01:38;99560;;;15.86;100
44127;BME280;29786;50.798;7.302;2023-05-07T20:06:35;99560;;;15.78;100
44127;BME280;29786;50.798;7.302;2023-05-07T20:11:31;99550;;;15.79;100
44127;BME280;29786;50.798;7.302;2023-05-07T20:16:28;99550;;;15.82;100
44127;BME280;29786;50.798;7.302;2023-05-07T20:22:38;99550;;;15.66;100
44127;BME280;29786;50.798;7.302;2023-05-07T20:27:35;99550;;;15.65;100
44127;BME280;29786;50.798;7.302;2023-05-07T20:32:31;99550;;;15.53;100
44127;BME280;29786;50.798;7.302;2023-05-07T20:37:28;99570;;;15.3;100
44127;BME280;29786;50.798;7.302;2023-05-07T20:43:39;99570;;;15.04;100
44127;BME280;29786;50.798;7.302;2023-05-07T20:48:35;99580;;;15.12;100
44127;BME280;29786;50.798;7.302;2023-05-07T20:53:32;99580;;;15.12;100
44127;BME280;29786;50.798;7.302;2023-05-07T20:58:28;99580;;;15.2;100
44127;BME280;29786;50.798;7.302;2023-05-07T21:04:39;99580;;;15.29;100
44127;BME280;29786;50.798;7.302;2023-05-07T21:09:35;99580;;;15.37;100
44127;BME280;29786;50.798;7.302;2023-05-07T21:14:32;99580;;;15.31;100
44127;BME280;29786;50.798;7.302;2023-05-07T21:19:28;99580;;;15.24;100
44127;BME280;29786;50.798;7.302;2023-05-07T21:25:39;99590;;;15.26;100
44127;BME280;29786;50.798;7.302;2023-05-07T21:30:36;99590;;;15.28;100
44127;BME280;29786;50.798;7.302;2023-05-07T21:35:32;99590;;;15.27;100
44127;BME280;29786;50.798;7.302;2023-05-07T21:40:29;99590;;;15.25;100
44127;BME280;29786;50.798;7.302;2023-05-07T21:46:39;99580;;;15.21;100
44127;BME280;29786;50.798;7.302;2023-05-07T21:51:36;99580;;;15.27;100
44127;BME280;29786;50.798;7.302;2023-05-07T21:56:32;99570;;;15.17;100
44127;BME280;29786;50.798;7.302;2023-05-07T22:01:29;99570;;;15.07;100
44127;BME280;29786;50.798;7.302;2023-05-07T22:07:40;99570;;;14.94;100
44127;BME280;29786;50.798;7.302;2023-05-07T22:12:36;99570;;;15.01;100
44127;BME280;29786;50.798;7.302;2023-05-07T22:17:33;99560;;;14.83;100
44127;BME280;29786;50.798;7.302;2023-05-07T22:22:29;99560;;;14.66;100
44127;BME280;29786;50.798;7.302;2023-05-07T22:28:40;99560;;;14.74;100
44127;BME280;29786;50.798;7.302;2023-05-07T22:33:36;99560;;;14.66;100
44127;BME280;29786;50.798;7.302;2023-05-07T22:38:33;99560;;;14.6;100
44127;BME280;29786;50.798;7.302;2023-05-07T22:43:29;99570;;;14.61;100
44127;BME280;29786;50.798;7.302;2023-05-07T22:49:40;99570;;;14.75;100
44127;BME280;29786;50.798;7.302;2023-05-07T22:54:37;99570;;;14.68;100
44127;BME280;29786;50.798;7.302;2023-05-07T22:59:33;99550;;;14.48;100
44127;BME280;29786;50.798;7.302;2023-05-07T23:04:30;99560;;;14.62;100
44127;BME280;29786;50.798;7.302;2023-05-07T23:10:40;99570;;;14.86;100
44127;BME280;29786;50.798;7.302;2023-05-07T23:15:37;99560;;;14.68;100
44127;BME280;29786;50.798;7.302;2023-05-07T23:20:34;99550;;;14.44;100
44127;BME280;29786;50.798;7.302;2023-05-07T23:25:30;99560;;;14.56;100
44127;BME280;29786;50.798;7.302;2023-05-07T23:31:41;99580;;;14.84;100
44127;BME280;29786;50.798;7.302;2023-05-07T23:36:37;99570;;;14.96;100
44127;BME280;29786;50.798;7.302;2023-05-07T23:41:34;99550;;;14.65;100
44127;BME280;29786;50.798;7.302;2023-05-07T23:46:30;99570;;;14.74;100
44127;BME280;29786;50.798;7.302;2023-05-07T23:51:27;99580;;;14.54;100
44127;BME280;29786;50.798;7.302;2023-05-07T23:57:37;99580;;;14.67;100
